Nearby METAR Reports

 Weather conditions at key Metar weather stations is recorded hourly. Metar weather stations are the stations set up at regional or major airports and often considered the official stations of record for a local area.

KSEA - Seattle/Tacoma Airport
Updated: 06/26/2017 7:53pm
Partly cloudy
Partly cloudy
 Wind from S
Wind: S 12 mph , 19 km/h
Temperature: 66°F , 19°C
Dew Point: 54°F , 12°C
Humidity: 64%
Barometer: 29.97 inHg , 1014.9 hPa
Clouds: Partly cloudy
Visibility: 10 miles , 16 km
Cloud details: Few Clouds 16000 ft
Partly cloudy 25000 ft
2017/06/27 02:53 KSEA 270253Z 19010KT 10SM FEW160 SCT250 19/12 A2997 RMK AO2 SLP152 ACC OHD T01890117 53001
KTIW - Tacoma Narrows Bridge
Updated: 06/26/2017 7:53pm
Clear
Clear
 Wind from SW
Wind: SW 6 mph , 9 km/h
Temperature: 63°F , 17°C
Dew Point: 54°F , 12°C
Humidity: 73%
Barometer: 29.98 inHg , 1015.2 hPa
Clouds: Clear
Visibility: 10 miles , 16 km
2017/06/27 02:53 KTIW 270253Z 22005KT 10SM CLR 17/12 A2998 RMK AO2 SLP151 T01720117 53005
 
KBLI - Bellingham
Updated: 06/26/2017 7:53pm
Clear
Clear
 Wind from S
Wind: S 10 mph , 17 km/h, Gust: 22 mph , 35 km/h
Temperature: 63°F , 17°C
Dew Point: 52°F , 11°C
Humidity: 68%
Barometer: 29.90 inHg , 1012.5 hPa
Clouds: Clear
Visibility: 10 miles , 16 km
2017/06/27 02:53 KBLI 270253Z 18009G19KT 10SM CLR 17/11 A2990 RMK AO2 SLP129 T01720111 55002
KUIL - Quillayute-La Push
Updated: 06/26/2017 7:53pm
Overcast
Overcast
 Wind from NW
Wind: NW 8 mph , 13 km/h
Temperature: 57°F , 14°C
Dew Point: 50°F , 10°C
Humidity: 77%
Barometer: 30.01 inHg , 1016.3 hPa
Clouds: Overcast
Visibility: 10 miles , 16 km
Cloud details: Overcast 1900 ft
2017/06/27 02:53 KUIL 270253Z AUTO 32007KT 10SM OVC019 14/10 A3001 RMK AO2 SLP162 T01390100 56007
 
KYKM - Yakima
Updated: 06/26/2017 7:53pm
Clear
Clear
 Wind from NNW
Wind: NNW 12 mph , 19 km/h
Temperature: 88°F , 31°C
Dew Point: 50°F , 10°C
Humidity: 27%
Barometer: 29.76 inHg , 1007.8 hPa
Clouds: Clear
Visibility: 10 miles , 16 km
2017/06/27 02:53 KYKM 270253Z 33010KT 10SM CLR 31/10 A2976 RMK AO2 LTG DSNT NW SLP067 T03060100 53019
KGEG - Spokane
Updated: 06/26/2017 8:32pm
Overcast
Overcast
 Wind from S
Wind: S 13 mph , 20 km/h
Temperature: 68°F , 20°C
Dew Point: 61°F , 16°C
Humidity: 78%
Barometer: 29.81 inHg , 1009.5 hPa
Clouds: Overcast
Visibility: 10 miles , 16 km
Cloud details: Few Clouds 4400 ft
Partly cloudy 8000 ft
Mostly cloudy 10000 ft
Overcast 16000 ft
2017/06/27 03:32 KGEG 270332Z 19011KT 10SM FEW044 SCT080 BKN100CB OVC160 20/16 A2981 RMK AO2 PK WND 20029/0254 RAE32 TSE30 LTG DSNT NE-S CBMAM OHD-SW-W CB DSNT NE-S P0010 T02000161 $
 
KPDX - Portland
Updated: 06/26/2017 7:53pm
Mostly cloudy
Mostly cloudy
 Wind from N
Wind: N 6 mph , 9 km/h
Temperature: 72°F , 22°C
Dew Point: 54°F , 12°C
Humidity: 53%
Barometer: 29.97 inHg , 1014.9 hPa
Clouds: Mostly cloudy
Visibility: 10 miles , 16 km
Cloud details: Partly cloudy 4300 ft
Mostly cloudy 7000 ft
Mostly cloudy 25000 ft
2017/06/27 02:53 KPDX 270253Z 35005KT 10SM SCT043 BKN070 BKN250 22/12 A2997 RMK AO2 SLP148 ACC N-E AND S-W-N T02170122 53013